Time;durP1;ratioP1;P1;durP2;ratioP2;P2;SDS_P1;SDS_P2;PMS_P1;PMS_P2;Temp;Humidity;BMP_temperature;BMP_pressure;BME280_temperature;BME280_humidity;BME280_pressure;Samples;Min_cycle;Max_cycle;Signal;HPM_P1;HPM_P2
2022/11/04 00:01:29;;;;;;;10.07;4.68;;;10.10;99.90;;;;;;6118890;29;20267;-67
2022/11/04 00:04:36;;;;;;;14.02;4.75;;;10.10;99.90;;;;;;6118666;29;20271;-67
2022/11/04 00:14:28;;;;;;;9.70;4.40;;;10.10;99.90;;;;;;6130660;29;20267;-67
2022/11/04 00:17:31;;;;;;;10.77;5.00;;;10.10;99.90;;;;;;6142146;29;20472;-67
2022/11/04 00:30:45;;;;;;;21.58;5.00;;;10.10;99.90;;;;;;6141530;29;20275;-66
2022/11/04 00:33:51;;;;;;;17.17;5.25;;;10.10;99.90;;;;;;6141799;29;20267;-67
2022/11/04 00:36:57;;;;;;;8.80;4.25;;;10.10;99.90;;;;;;6134275;29;20598;-69
2022/11/04 00:40:02;;;;;;;8.43;4.32;;;10.10;99.90;;;;;;6141372;29;20286;-67
2022/11/04 00:43:07;;;;;;;15.18;4.38;;;10.10;99.90;;;;;;6141830;29;20563;-66
2022/11/04 00:46:12;;;;;;;9.43;4.38;;;10.20;99.90;;;;;;6141648;29;20279;-66
2022/11/04 00:49:17;;;;;;;7.72;4.60;;;10.10;99.90;;;;;;6141469;29;20274;-66
2022/11/04 00:52:23;;;;;;;7.95;4.15;;;10.20;99.90;;;;;;6141241;29;20271;-67
2022/11/04 00:55:28;;;;;;;13.45;4.18;;;10.20;99.90;;;;;;6140894;29;20291;-67
2022/11/04 00:58:33;;;;;;;7.95;3.83;;;10.20;99.90;;;;;;6141002;29;20272;-67
2022/11/04 01:01:38;;;;;;;12.98;4.28;;;10.10;99.90;;;;;;6141152;29;20271;-67
2022/11/04 01:04:43;;;;;;;16.52;4.40;;;10.10;99.90;;;;;;6140899;29;20303;-67
2022/11/04 01:07:50;;;;;;;10.45;3.97;;;10.10;99.90;;;;;;6124558;29;20284;-67
2022/11/04 01:10:55;;;;;;;9.57;3.78;;;10.10;99.90;;;;;;6141109;29;20267;-67
2022/11/04 01:14:00;;;;;;;11.10;3.35;;;10.10;99.90;;;;;;6149724;29;20588;-67
2022/11/04 01:17:05;;;;;;;8.55;3.60;;;10.10;99.90;;;;;;6164657;29;20290;-67
2022/11/04 01:20:13;;;;;;;15.25;4.07;;;10.20;99.90;;;;;;6164569;29;20274;-67
2022/11/04 01:23:19;;;;;;;15.07;3.85;;;10.20;99.90;;;;;;6164713;29;20448;-67
2022/11/04 01:26:25;;;;;;;7.60;3.55;;;10.20;99.90;;;;;;6164718;29;20275;-67
2022/11/04 01:29:30;;;;;;;10.57;3.78;;;10.30;99.90;;;;;;6164282;28;20266;-67
2022/11/04 01:32:35;;;;;;;7.03;3.70;;;10.20;99.90;;;;;;6164237;29;20276;-67
2022/11/04 01:35:40;;;;;;;10.55;3.92;;;10.30;99.90;;;;;;6164181;29;20267;-66
2022/11/04 01:38:47;;;;;;;11.95;3.80;;;10.20;99.90;;;;;;6164545;29;20274;-66
2022/11/04 01:41:52;;;;;;;9.35;3.83;;;10.20;99.90;;;;;;6164054;29;20270;-67
2022/11/04 01:44:58;;;;;;;13.98;4.30;;;10.20;99.90;;;;;;6163988;29;20271;-66
2022/11/04 01:48:07;;;;;;;9.98;3.72;;;10.20;99.90;;;;;;6163714;29;20278;-66
2022/11/04 01:51:13;;;;;;;8.70;3.85;;;10.20;99.90;;;;;;6163750;29;20275;-67
2022/11/04 01:54:20;;;;;;;12.25;3.47;;;10.20;99.90;;;;;;6164119;29;20526;-66
2022/11/04 01:57:30;;;;;;;13.25;3.40;;;10.20;99.90;;;;;;6163676;29;20294;-66
2022/11/04 02:00:35;;;;;;;10.45;3.40;;;10.20;99.90;;;;;;6163460;29;20274;-67
2022/11/04 02:03:47;;;;;;;13.45;3.60;;;10.20;99.90;;;;;;6163727;29;20269;-66
2022/11/04 02:06:55;;;;;;;11.90;3.78;;;10.20;99.90;;;;;;6164134;29;20302;-66
2022/11/04 02:10:02;;;;;;;13.43;3.80;;;10.20;99.90;;;;;;6163426;29;20279;-68
2022/11/04 02:13:06;;;;;;;9.48;3.50;;;10.10;99.90;;;;;;6162401;29;20267;-66
2022/11/04 02:16:20;;;;;;;8.38;3.28;;;10.10;99.90;;;;;;6139917;29;20298;-67
2022/11/04 02:19:48;;;;;;;9.85;3.60;;;10.00;99.90;;;;;;6140219;29;20271;-67
2022/11/04 02:23:26;;;;;;;7.25;3.30;;;10.00;99.90;;;;;;6140311;29;20275;-67
2022/11/04 02:27:21;;;;;;;10.95;3.88;;;9.90;99.90;;;;;;6139972;29;20279;-67
2022/11/04 02:30:28;;;;;;;5.22;3.55;;;9.80;99.90;;;;;;6139810;29;20593;-66
2022/11/04 02:33:37;;;;;;;9.07;3.30;;;9.80;99.90;;;;;;6139896;29;20272;-66
2022/11/04 02:36:47;;;;;;;9.23;3.30;;;9.70;99.90;;;;;;6139684;29;20295;-66
2022/11/04 02:39:56;;;;;;;6.70;4.07;;;9.70;99.90;;;;;;6140174;29;20554;-66
2022/11/04 02:43:03;;;;;;;7.20;3.00;;;9.70;99.90;;;;;;6144446;29;20279;-67
2022/11/04 02:46:16;;;;;;;14.45;4.15;;;9.80;99.90;;;;;;6144103;29;20568;-66
2022/11/04 02:49:28;;;;;;;10.23;3.47;;;9.80;99.90;;;;;;6143798;29;20587;-66
2022/11/04 02:52:42;;;;;;;9.35;3.10;;;9.80;99.90;;;;;;6144166;29;20263;-67
2022/11/04 02:55:56;;;;;;;6.40;3.08;;;9.80;99.90;;;;;;6144140;29;20275;-66
2022/11/04 02:59:06;;;;;;;6.97;3.92;;;9.90;99.90;;;;;;6144051;29;20292;-67
2022/11/04 03:02:18;;;;;;;9.18;3.80;;;9.90;99.90;;;;;;6143751;29;20304;-67
2022/11/04 03:05:27;;;;;;;6.07;3.50;;;9.90;99.90;;;;;;6143636;29;20303;-67
2022/11/04 03:08:35;;;;;;;6.25;2.95;;;9.90;99.90;;;;;;6143675;29;20276;-67
2022/11/04 03:11:44;;;;;;;7.80;3.70;;;10.00;99.90;;;;;;6143208;29;20457;-67
2022/11/04 03:14:53;;;;;;;13.45;3.80;;;10.00;99.90;;;;;;6159065;29;20266;-67
2022/11/04 03:18:05;;;;;;;8.07;3.33;;;10.00;99.90;;;;;;6167510;29;20294;-67
2022/11/04 03:21:13;;;;;;;7.57;3.13;;;10.00;99.90;;;;;;6167365;29;20271;-66
2022/11/04 03:24:18;;;;;;;10.50;3.22;;;10.00;99.90;;;;;;6167080;29;20295;-66
2022/11/04 03:27:35;;;;;;;5.25;3.15;;;9.90;99.90;;;;;;6167292;29;20291;-67
2022/11/04 03:30:43;;;;;;;6.70;3.40;;;9.90;99.90;;;;;;6167010;29;20271;-68
2022/11/04 03:33:52;;;;;;;8.30;3.15;;;9.80;99.90;;;;;;6167040;29;20278;-67
2022/11/04 03:36:57;;;;;;;7.38;3.10;;;9.80;99.90;;;;;;6149962;29;20294;-67
2022/11/04 03:40:04;;;;;;;3.13;2.88;;;9.80;99.90;;;;;;6167054;29;20276;-65
2022/11/04 03:43:14;;;;;;;7.30;3.20;;;9.80;99.90;;;;;;6166455;29;20275;-66
2022/11/04 03:46:21;;;;;;;5.15;2.75;;;9.70;99.90;;;;;;6166553;29;20270;-67
2022/11/04 03:49:27;;;;;;;6.03;3.00;;;9.60;99.90;;;;;;6166659;29;20558;-66
2022/11/04 03:52:32;;;;;;;7.53;3.20;;;9.60;99.90;;;;;;6166196;28;20274;-66
2022/11/04 03:55:55;;;;;;;6.65;2.97;;;9.50;99.90;;;;;;6166707;29;20275;-66
2022/11/04 03:59:12;;;;;;;8.43;3.28;;;9.50;99.90;;;;;;6166190;29;20286;-67
2022/11/04 04:02:21;;;;;;;8.60;2.92;;;9.50;99.90;;;;;;6166424;29;20271;-66
2022/11/04 04:05:31;;;;;;;5.75;2.78;;;9.50;99.90;;;;;;6165931;29;20300;-66
2022/11/04 04:08:40;;;;;;;5.28;3.00;;;9.40;99.90;;;;;;6166434;29;20271;-67
2022/11/04 04:11:50;;;;;;;7.18;3.05;;;9.40;99.90;;;;;;6165977;29;20437;-66
2022/11/04 04:14:59;;;;;;;5.05;2.85;;;9.40;99.90;;;;;;6150187;29;20267;-66
2022/11/04 04:18:08;;;;;;;6.78;2.75;;;9.40;99.90;;;;;;6142195;29;20469;-66
2022/11/04 04:21:20;;;;;;;8.20;3.35;;;9.40;99.90;;;;;;6142127;29;20267;-67
2022/11/04 04:27:59;;;;;;;6.65;2.60;;;9.40;99.90;;;;;;6141645;29;20283;-66
2022/11/04 04:31:05;;;;;;;6.50;3.10;;;9.40;99.90;;;;;;6141979;29;20271;-66
2022/11/04 04:34:11;;;;;;;8.07;2.70;;;9.40;99.90;;;;;;6141673;29;20271;-66
2022/11/04 04:37:20;;;;;;;2.85;2.50;;;9.40;99.90;;;;;;6141788;29;20271;-66
2022/11/04 04:47:18;;;;;;;12.65;2.80;;;9.40;99.90;;;;;;6141149;29;20292;-66
2022/11/04 04:50:26;;;;;;;8.00;2.95;;;9.50;99.90;;;;;;6141113;29;20267;-67
2022/11/04 04:53:32;;;;;;;6.05;2.97;;;9.50;99.90;;;;;;6141670;29;20432;-67
2022/11/04 04:56:37;;;;;;;8.30;3.30;;;9.40;99.90;;;;;;6140860;29;20454;-67
2022/11/04 04:59:42;;;;;;;10.88;3.25;;;9.40;99.90;;;;;;6141244;29;20291;-66
2022/11/04 05:02:46;;;;;;;5.88;2.50;;;9.40;99.90;;;;;;6140927;29;20275;-66
2022/11/04 05:05:51;;;;;;;4.63;2.38;;;9.50;99.90;;;;;;6140562;29;20299;-67
2022/11/04 05:09:02;;;;;;;9.90;3.00;;;9.40;99.90;;;;;;6141245;29;20453;-68
2022/11/04 05:12:08;;;;;;;9.93;2.80;;;9.50;99.90;;;;;;6140737;29;20267;-66
2022/11/04 05:15:13;;;;;;;9.85;2.80;;;9.50;99.90;;;;;;6159163;29;20266;-66
2022/11/04 05:18:18;;;;;;;5.63;2.58;;;9.40;99.90;;;;;;6164221;29;20286;-66
2022/11/04 05:21:23;;;;;;;7.90;2.90;;;9.40;99.90;;;;;;6164430;29;20449;-66
2022/11/04 05:24:29;;;;;;;7.43;2.58;;;9.40;99.90;;;;;;6164783;29;20266;-66
2022/11/04 05:27:34;;;;;;;11.68;3.35;;;9.40;99.90;;;;;;6164285;29;20266;-66
2022/11/04 05:30:40;;;;;;;11.02;3.33;;;9.30;99.90;;;;;;6164745;29;20274;-66
2022/11/04 05:33:45;;;;;;;5.78;2.85;;;9.30;99.90;;;;;;6164248;29;20274;-67
2022/11/04 05:36:50;;;;;;;9.48;2.80;;;9.30;99.90;;;;;;6142292;29;20274;-66
2022/11/04 05:39:56;;;;;;;7.50;2.72;;;9.20;99.90;;;;;;6140586;29;20290;-66
2022/11/04 05:43:01;;;;;;;5.00;2.70;;;9.10;99.90;;;;;;6140276;29;20434;-66
2022/11/04 05:46:06;;;;;;;4.45;2.50;;;9.10;99.90;;;;;;6140651;29;20361;-66
2022/11/04 05:49:12;;;;;;;9.20;2.85;;;9.10;99.90;;;;;;6140606;29;20274;-66
2022/11/04 05:52:16;;;;;;;5.22;2.65;;;9.10;99.90;;;;;;6140380;29;20271;-67
2022/11/04 05:55:22;;;;;;;7.55;2.63;;;9.00;99.90;;;;;;6140381;29;20271;-66
2022/11/04 05:58:27;;;;;;;4.72;2.67;;;9.00;99.90;;;;;;6140181;29;20291;-67
2022/11/04 06:01:35;;;;;;;8.30;3.20;;;9.00;99.90;;;;;;6140122;29;20271;-67
2022/11/04 06:04:40;;;;;;;5.00;2.63;;;8.90;99.90;;;;;;6139756;29;20302;-66
2022/11/04 06:07:45;;;;;;;9.02;2.80;;;8.90;99.90;;;;;;6139570;29;20450;-66
2022/11/04 06:10:51;;;;;;;6.45;2.70;;;9.00;99.90;;;;;;6140175;29;20270;-66
2022/11/04 06:13:57;;;;;;;8.13;3.15;;;9.00;99.90;;;;;;6140203;29;20260;-67
2022/11/04 06:17:02;;;;;;;11.20;2.80;;;9.00;99.90;;;;;;6144568;29;20591;-67
2022/11/04 06:20:09;;;;;;;5.95;2.60;;;9.00;99.90;;;;;;6144427;29;20290;-66
2022/11/04 06:23:15;;;;;;;9.60;2.50;;;9.10;99.90;;;;;;6144848;29;20278;-66
2022/11/04 06:26:21;;;;;;;7.75;2.55;;;9.00;99.90;;;;;;6144777;29;20267;-68
2022/11/04 06:29:31;;;;;;;7.43;2.80;;;9.00;99.90;;;;;;6144679;29;20451;-66
2022/11/04 06:32:36;;;;;;;7.53;2.85;;;9.10;99.90;;;;;;6144640;29;20271;-67
2022/11/04 06:35:41;;;;;;;4.88;2.50;;;9.10;99.90;;;;;;6144181;29;20271;-66
2022/11/04 06:38:46;;;;;;;9.80;3.00;;;9.10;99.90;;;;;;6144373;29;20290;-66
2022/11/04 06:41:52;;;;;;;13.30;2.90;;;9.10;99.90;;;;;;6144103;29;20295;-67
2022/11/04 06:45:01;;;;;;;10.18;2.78;;;9.20;99.90;;;;;;6144645;29;20276;-67
2022/11/04 06:48:07;;;;;;;8.30;2.58;;;9.20;99.90;;;;;;6144313;29;20267;-68
2022/11/04 06:51:13;;;;;;;8.55;2.70;;;9.10;99.90;;;;;;6144255;29;20298;-67
2022/11/04 06:54:18;;;;;;;3.78;2.30;;;9.10;99.90;;;;;;6143667;29;20271;-67
2022/11/04 06:57:24;;;;;;;14.23;2.80;;;9.10;99.90;;;;;;6143948;29;20271;-68
2022/11/04 07:00:28;;;;;;;7.60;2.58;;;9.10;99.90;;;;;;6143394;29;20291;-67
2022/11/04 07:03:33;;;;;;;11.50;2.97;;;9.10;99.90;;;;;;6143392;29;20279;-67
2022/11/04 07:06:38;;;;;;;9.43;2.55;;;9.10;99.90;;;;;;6143250;29;20491;-66
2022/11/04 07:09:47;;;;;;;9.07;2.53;;;9.10;99.90;;;;;;6143960;29;20275;-67
2022/11/04 07:12:54;;;;;;;8.82;2.63;;;9.20;99.90;;;;;;6143183;29;20276;-67
2022/11/04 07:15:59;;;;;;;10.52;2.70;;;9.20;99.90;;;;;;6160168;29;20271;-66
2022/11/04 07:19:04;;;;;;;7.13;2.08;;;9.10;99.90;;;;;;6167065;29;20270;-67
2022/11/04 07:22:12;;;;;;;5.55;2.30;;;9.20;99.90;;;;;;6166928;29;20319;-67
2022/11/04 07:25:17;;;;;;;12.35;2.45;;;9.20;99.90;;;;;;6166664;29;20271;-66
2022/11/04 07:28:23;;;;;;;6.82;2.17;;;9.20;99.90;;;;;;6166506;29;20290;-67
2022/11/04 07:31:29;;;;;;;5.57;2.30;;;9.20;99.90;;;;;;6166743;29;20274;-67
2022/11/04 07:34:33;;;;;;;5.68;2.47;;;9.20;99.90;;;;;;6166668;29;20293;-68
2022/11/04 07:37:38;;;;;;;10.27;2.47;;;9.20;99.90;;;;;;6150042;29;20275;-67
2022/11/04 07:40:43;;;;;;;7.13;2.35;;;9.20;99.90;;;;;;6167133;29;20290;-68
2022/11/04 07:43:50;;;;;;;8.10;2.13;;;9.20;99.90;;;;;;6166765;29;20270;-67
2022/11/04 07:46:55;;;;;;;4.80;2.10;;;9.30;99.90;;;;;;6166352;29;20462;-67
2022/11/04 07:50:00;;;;;;;10.25;2.30;;;9.30;99.90;;;;;;6166547;29;20442;-67
2022/11/04 07:53:16;;;;;;;6.80;2.53;;;9.30;99.90;;;;;;6166374;29;20463;-67
2022/11/04 07:56:22;;;;;;;4.50;2.03;;;9.40;99.90;;;;;;6166359;29;20466;-67
2022/11/04 07:59:29;;;;;;;5.82;1.90;;;9.40;99.90;;;;;;6166373;29;20271;-68
2022/11/04 08:02:34;;;;;;;13.38;2.17;;;9.40;99.90;;;;;;6166140;29;20554;-67
2022/11/04 08:05:39;;;;;;;8.98;2.53;;;9.40;99.90;;;;;;6166540;29;20306;-68
2022/11/04 08:08:44;;;;;;;9.88;2.47;;;9.50;99.90;;;;;;6166296;29;20271;-68
2022/11/04 08:11:49;;;;;;;9.57;2.63;;;9.50;99.90;;;;;;6166218;29;20274;-67
2022/11/04 08:14:55;;;;;;;6.90;2.17;;;9.50;99.90;;;;;;6149821;29;20284;-67
2022/11/04 08:18:00;;;;;;;5.07;2.05;;;9.50;99.90;;;;;;6142246;29;20315;-67
2022/11/04 08:21:05;;;;;;;10.52;2.38;;;9.50;99.90;;;;;;6142298;29;20295;-69
2022/11/04 08:24:09;;;;;;;5.63;2.10;;;9.60;99.90;;;;;;6141794;29;20271;-68
2022/11/04 08:27:15;;;;;;;8.15;2.17;;;9.70;99.90;;;;;;6141577;29;20271;-67
2022/11/04 08:30:21;;;;;;;7.18;2.30;;;9.80;99.90;;;;;;6141814;29;20295;-67
2022/11/04 08:33:27;;;;;;;4.88;2.28;;;9.80;99.90;;;;;;6141885;29;20448;-67
2022/11/04 08:36:35;;;;;;;6.18;2.35;;;9.90;99.90;;;;;;6141967;29;20563;-67
2022/11/04 08:39:40;;;;;;;6.60;1.90;;;9.90;99.90;;;;;;6141727;29;20271;-68
2022/11/04 08:42:45;;;;;;;10.25;2.15;;;10.00;99.90;;;;;;6141515;29;20267;-66
2022/11/04 08:45:51;;;;;;;2.65;1.80;;;10.00;99.90;;;;;;6140952;29;20271;-66
2022/11/04 08:48:56;;;;;;;5.70;1.95;;;10.10;99.90;;;;;;6141426;29;20271;-66
2022/11/04 08:52:01;;;;;;;6.57;2.00;;;10.20;99.90;;;;;;6141048;29;20280;-66
2022/11/04 08:55:07;;;;;;;4.70;1.80;;;10.30;99.90;;;;;;6140878;29;20271;-67
2022/11/04 08:58:13;;;;;;;12.25;2.28;;;10.40;99.90;;;;;;6140879;29;20275;-67
2022/11/04 09:01:20;;;;;;;4.68;2.55;;;10.50;99.90;;;;;;6141100;29;20286;-66
2022/11/04 09:04:26;;;;;;;10.80;2.40;;;10.60;99.90;;;;;;6136275;29;20275;-67
2022/11/04 09:07:31;;;;;;;7.40;1.85;;;10.60;99.90;;;;;;6138174;29;20270;-66
2022/11/04 09:10:36;;;;;;;11.95;1.98;;;10.70;99.90;;;;;;6141438;29;20298;-67
2022/11/04 09:13:41;;;;;;;9.80;2.03;;;10.70;99.90;;;;;;6147132;29;20424;-66
2022/11/04 09:16:48;;;;;;;4.10;1.92;;;10.70;99.90;;;;;;6164661;29;20270;-67
2022/11/04 09:19:53;;;;;;;4.53;1.70;;;10.80;99.90;;;;;;6164600;29;20270;-67
2022/11/04 09:22:58;;;;;;;4.70;1.80;;;10.80;99.90;;;;;;6164173;29;20286;-67
2022/11/04 09:26:09;;;;;;;5.95;2.00;;;10.90;99.90;;;;;;6164438;29;20270;-67
2022/11/04 09:29:14;;;;;;;6.25;1.65;;;10.90;99.90;;;;;;6164650;29;20279;-67
2022/11/04 09:32:20;;;;;;;6.95;2.33;;;10.90;99.90;;;;;;6164718;29;20271;-67
2022/11/04 09:35:26;;;;;;;3.50;1.95;;;10.90;99.90;;;;;;6164564;29;20278;-67
2022/11/04 09:38:32;;;;;;;6.82;2.25;;;10.90;99.90;;;;;;6164438;29;20270;-67
2022/11/04 09:42:01;;;;;;;9.68;3.25;;;10.90;99.90;;;;;;6164311;29;20294;-67
2022/11/04 09:45:12;;;;;;;11.27;2.20;;;10.90;99.90;;;;;;6164232;29;20271;-67
2022/11/04 09:48:31;;;;;;;2.42;1.75;;;10.90;99.90;;;;;;6164329;29;20275;-67
2022/11/04 09:51:37;;;;;;;3.40;1.70;;;10.80;99.90;;;;;;6163819;29;20275;-67
2022/11/04 09:55:05;;;;;;;4.50;1.60;;;10.80;99.90;;;;;;6164202;29;20274;-67
2022/11/04 09:58:13;;;;;;;4.75;1.95;;;10.90;99.90;;;;;;6163628;29;20270;-66
2022/11/04 10:01:27;;;;;;;5.50;1.80;;;11.00;99.90;;;;;;6164119;29;20293;-67
2022/11/04 10:04:46;;;;;;;1.90;1.77;;;11.10;99.90;;;;;;6161892;28;20271;-67
2022/11/04 10:08:08;;;;;;;6.20;2.13;;;11.10;99.90;;;;;;6140435;29;20271;-66
2022/11/04 10:11:21;;;;;;;3.22;1.52;;;11.10;99.90;;;;;;6139838;29;20283;-66
2022/11/04 10:14:45;;;;;;;4.80;1.85;;;11.10;99.90;;;;;;6127828;29;20572;-67
2022/11/04 10:18:05;;;;;;;5.30;1.67;;;11.10;99.90;;;;;;6116177;29;20268;-67
2022/11/04 10:21:22;;;;;;;9.15;1.92;;;11.10;99.90;;;;;;6116329;29;20292;-68
2022/11/04 10:24:39;;;;;;;7.05;1.85;;;11.20;99.90;;;;;;6116740;29;20281;-66
2022/11/04 10:27:46;;;;;;;9.48;1.90;;;11.20;99.90;;;;;;6116466;29;20576;-66
2022/11/04 10:30:52;;;;;;;3.90;2.38;;;11.20;99.90;;;;;;6115969;29;20277;-67
2022/11/04 10:34:03;;;;;;;4.53;1.98;;;11.10;99.90;;;;;;6116509;29;20452;-67
2022/11/04 10:37:11;;;;;;;3.65;1.35;;;11.10;99.90;;;;;;6116214;29;20276;-66
2022/11/04 10:40:24;;;;;;;2.13;1.58;;;11.10;99.90;;;;;;6099352;29;20272;-67
2022/11/04 10:43:34;;;;;;;5.35;1.63;;;11.10;99.90;;;;;;6115920;29;20296;-66
2022/11/04 10:46:49;;;;;;;3.35;1.67;;;11.10;99.90;;;;;;6115806;29;20272;-67
2022/11/04 10:50:22;;;;;;;6.30;1.70;;;11.10;99.90;;;;;;6115532;29;20272;-66
2022/11/04 10:53:36;;;;;;;3.60;1.55;;;11.10;99.90;;;;;;6116472;29;20276;-67
2022/11/04 10:56:45;;;;;;;5.80;2.10;;;11.10;99.90;;;;;;6116574;29;20267;-67
2022/11/04 10:59:54;;;;;;;8.30;1.95;;;11.10;99.90;;;;;;6115531;29;20445;-68
2022/11/04 11:02:59;;;;;;;5.43;1.80;;;11.10;99.90;;;;;;6119206;29;20583;-67
2022/11/04 11:06:19;;;;;;;5.97;1.65;;;11.10;99.90;;;;;;6133607;29;20369;-69
2022/11/04 11:09:28;;;;;;;9.75;2.00;;;11.10;99.90;;;;;;6143803;29;20272;-67
2022/11/04 11:12:39;;;;;;;5.65;1.67;;;11.20;99.90;;;;;;6143806;29;20284;-67
2022/11/04 11:16:12;;;;;;;8.68;2.00;;;11.20;99.90;;;;;;6119600;29;20272;-67
2022/11/04 11:19:20;;;;;;;5.95;1.90;;;11.20;99.90;;;;;;6119566;29;20272;-68
2022/11/04 11:22:37;;;;;;;7.55;1.70;;;11.20;99.90;;;;;;6119646;29;20292;-68
2022/11/04 11:25:49;;;;;;;4.57;1.67;;;11.30;99.90;;;;;;6120219;29;20361;-66
2022/11/04 11:28:58;;;;;;;4.28;1.50;;;11.30;99.90;;;;;;6119927;29;20274;-66
2022/11/04 11:32:04;;;;;;;5.28;1.90;;;11.30;99.90;;;;;;6119378;29;20280;-67
2022/11/04 11:35:16;;;;;;;4.13;1.90;;;11.30;99.90;;;;;;6119647;29;20279;-67
2022/11/04 11:38:26;;;;;;;8.30;1.52;;;11.30;99.90;;;;;;6118992;29;20268;-66
2022/11/04 11:41:34;;;;;;;3.83;1.70;;;11.30;99.90;;;;;;6119621;29;20267;-67
2022/11/04 11:44:50;;;;;;;5.07;2.50;;;11.20;99.90;;;;;;6118980;29;20276;-66
2022/11/04 11:47:55;;;;;;;3.72;2.50;;;11.20;99.90;;;;;;6118962;29;20276;-67
2022/11/04 11:51:00;;;;;;;6.32;2.30;;;11.20;99.90;;;;;;6118924;29;20271;-67
2022/11/04 11:54:21;;;;;;;9.38;2.40;;;11.20;99.90;;;;;;6119249;29;20272;-67
2022/11/04 11:57:43;;;;;;;3.65;2.25;;;11.10;99.90;;;;;;6119359;29;20275;-67
2022/11/04 12:00:52;;;;;;;5.13;1.77;;;11.10;99.90;;;;;;6118396;29;20275;-67
2022/11/04 12:04:12;;;;;;;5.20;2.00;;;11.00;99.90;;;;;;6118741;29;20295;-67
2022/11/04 12:07:42;;;;;;;1.88;1.67;;;11.10;99.90;;;;;;6118489;29;20279;-67
2022/11/04 12:11:13;;;;;;;7.00;2.03;;;11.00;99.90;;;;;;6118587;29;20272;-67
2022/11/04 12:14:24;;;;;;;5.50;1.85;;;11.10;99.90;;;;;;6129098;29;20268;-67
2022/11/04 12:17:47;;;;;;;3.20;2.15;;;11.10;99.90;;;;;;6142316;29;20204;-67
2022/11/04 12:20:59;;;;;;;3.58;1.60;;;11.00;99.90;;;;;;6142422;29;20275;-67
2022/11/04 12:24:27;;;;;;;5.30;1.63;;;11.00;99.90;;;;;;6141821;29;20295;-67
2022/11/04 12:27:37;;;;;;;4.95;1.85;;;11.00;99.90;;;;;;6142162;29;20271;-67
2022/11/04 12:30:52;;;;;;;4.55;1.63;;;11.10;99.90;;;;;;6142031;29;20275;-66
2022/11/04 12:34:09;;;;;;;8.02;2.58;;;11.10;99.90;;;;;;6141593;29;20275;-66
2022/11/04 12:37:25;;;;;;;8.13;1.80;;;11.10;99.90;;;;;;6125029;29;20279;-67
2022/11/04 12:40:36;;;;;;;3.17;1.50;;;11.10;99.90;;;;;;6141720;29;20271;-67
2022/11/04 12:43:49;;;;;;;8.15;1.83;;;11.10;99.90;;;;;;6124907;29;20291;-66
2022/11/04 12:47:06;;;;;;;3.97;1.88;;;11.10;99.90;;;;;;6124615;29;20267;-66
2022/11/04 12:50:37;;;;;;;8.50;2.58;;;11.00;99.90;;;;;;6141448;29;20272;-67
2022/11/04 12:54:10;;;;;;;5.35;1.67;;;11.00;99.90;;;;;;6140751;29;20459;-68
2022/11/04 12:57:25;;;;;;;4.03;1.63;;;11.10;99.90;;;;;;6141272;29;20458;-66
2022/11/04 13:00:30;;;;;;;7.22;2.10;;;11.10;99.90;;;;;;6141150;29;20276;-66
2022/11/04 13:03:44;;;;;;;4.40;1.90;;;11.10;99.90;;;;;;6140822;29;20578;-67
2022/11/04 13:06:53;;;;;;;4.10;1.92;;;11.00;99.90;;;;;;6140547;29;20299;-66
2022/11/04 13:10:00;;;;;;;7.68;2.00;;;11.00;99.90;;;;;;6141028;29;20427;-67
2022/11/04 13:13:07;;;;;;;4.05;1.70;;;11.00;99.90;;;;;;6140577;29;20275;-67
2022/11/04 13:16:13;;;;;;;4.13;1.70;;;11.00;99.90;;;;;;6141225;29;20570;-66
2022/11/04 13:19:27;;;;;;;3.10;1.90;;;11.00;99.90;;;;;;6141158;29;20271;-67
2022/11/04 13:22:36;;;;;;;8.70;2.53;;;10.90;99.90;;;;;;6140844;29;20267;-66
2022/11/04 13:25:44;;;;;;;10.48;2.00;;;10.90;99.90;;;;;;6140566;29;20270;-67
2022/11/04 13:28:58;;;;;;;1.95;1.80;;;10.90;99.90;;;;;;6140489;29;20275;-66
2022/11/04 13:32:20;;;;;;;5.53;2.00;;;10.80;99.90;;;;;;6140470;29;20441;-67
2022/11/04 13:35:31;;;;;;;4.95;1.80;;;10.90;99.90;;;;;;6140731;29;20279;-67
2022/11/04 13:38:39;;;;;;;2.70;1.52;;;10.90;99.90;;;;;;6140291;29;20271;-67
2022/11/04 13:42:46;;;;;;;9.50;2.20;;;10.80;99.90;;;;;;6140722;29;20280;-67
2022/11/04 13:45:53;;;;;;;27.17;4.22;;;10.70;99.90;;;;;;6081283;29;20554;-67
2022/11/04 13:49:03;;;;;;;9.48;2.30;;;10.90;99.90;;;;;;6140017;29;20443;-66
2022/11/04 13:52:12;;;;;;;7.53;1.90;;;10.90;99.90;;;;;;6138790;29;20276;-67
2022/11/04 13:55:20;;;;;;;7.15;2.38;;;10.80;99.90;;;;;;6140452;29;20412;-67
2022/11/04 13:58:26;;;;;;;11.05;2.60;;;10.80;99.90;;;;;;6140297;29;20275;-67
2022/11/04 14:01:33;;;;;;;12.90;2.58;;;10.70;99.90;;;;;;6140324;29;20275;-66
2022/11/04 14:04:39;;;;;;;8.60;2.00;;;10.70;99.90;;;;;;6141756;29;20303;-67
2022/11/04 14:08:12;;;;;;;9.07;2.05;;;10.70;99.90;;;;;;6163530;29;20468;-67
2022/11/04 14:11:17;;;;;;;5.70;1.85;;;10.80;99.90;;;;;;6163415;29;20270;-67
2022/11/04 14:14:21;;;;;;;6.53;1.95;;;10.70;99.90;;;;;;6152330;29;20270;-68
2022/11/04 14:17:58;;;;;;;5.65;2.00;;;10.50;99.90;;;;;;6140025;29;20272;-67
2022/11/04 14:21:07;;;;;;;4.32;2.00;;;10.60;99.90;;;;;;6140059;29;20267;-67
2022/11/04 14:24:14;;;;;;;10.40;2.15;;;10.50;99.90;;;;;;6122892;29;20295;-67
2022/11/04 14:27:27;;;;;;;4.18;1.63;;;10.50;99.90;;;;;;6139943;29;20267;-67
2022/11/04 14:30:43;;;;;;;7.88;1.60;;;10.40;99.90;;;;;;6139905;29;20327;-68
2022/11/04 14:33:53;;;;;;;4.57;1.80;;;10.50;99.90;;;;;;6139840;29;20275;-67
2022/11/04 14:36:59;;;;;;;6.40;2.03;;;10.40;99.90;;;;;;6143269;29;20279;-67
2022/11/04 14:40:24;;;;;;;3.00;1.80;;;10.40;99.90;;;;;;6144324;29;20271;-67
2022/11/04 14:43:33;;;;;;;6.95;2.50;;;10.30;99.90;;;;;;6143980;29;20276;-68
2022/11/04 14:46:44;;;;;;;6.85;1.90;;;10.30;99.90;;;;;;6144164;29;20280;-67
2022/11/04 14:49:51;;;;;;;5.88;1.98;;;10.30;99.90;;;;;;6144370;29;20275;-68
2022/11/04 14:52:58;;;;;;;4.90;1.70;;;10.20;99.90;;;;;;6144220;29;20271;-67
2022/11/04 14:56:07;;;;;;;5.43;1.83;;;10.20;99.90;;;;;;6144499;29;20279;-66
2022/11/04 14:59:21;;;;;;;9.65;2.10;;;10.20;99.90;;;;;;6143762;29;20271;-67
2022/11/04 15:02:30;;;;;;;6.28;2.05;;;10.20;99.90;;;;;;6144300;29;20280;-67
2022/11/04 15:05:36;;;;;;;7.25;2.00;;;10.20;99.90;;;;;;6143329;29;20303;-68
2022/11/04 15:08:45;;;;;;;7.45;2.05;;;10.20;99.90;;;;;;6143411;29;20276;-67
2022/11/04 15:15:35;;;;;;;10.25;1.77;;;10.20;99.90;;;;;;6163086;29;20266;-67
2022/11/04 15:18:41;;;;;;;12.70;2.45;;;10.30;99.90;;;;;;6167199;29;20578;-67
2022/11/04 15:21:48;;;;;;;4.20;1.70;;;10.20;99.90;;;;;;6167471;29;20271;-66
2022/11/04 15:24:53;;;;;;;10.95;2.00;;;10.20;99.90;;;;;;6167305;29;20467;-66
2022/11/04 15:28:00;;;;;;;4.15;1.80;;;10.30;99.90;;;;;;6167243;29;20266;-66
2022/11/04 15:31:14;;;;;;;8.07;1.90;;;10.20;99.90;;;;;;6167291;29;20275;-67
2022/11/04 15:34:19;;;;;;;7.05;1.65;;;10.30;99.90;;;;;;6150324;29;20279;-66
2022/11/04 15:37:27;;;;;;;5.05;1.65;;;10.20;99.90;;;;;;6167063;29;20270;-67
2022/11/04 15:40:34;;;;;;;5.47;1.90;;;10.20;99.90;;;;;;6167101;29;20274;-66
2022/11/04 15:43:41;;;;;;;4.63;1.60;;;10.20;99.90;;;;;;6166619;29;20275;-67
2022/11/04 15:46:51;;;;;;;6.82;1.75;;;10.10;99.90;;;;;;6165988;28;20601;-67
2022/11/04 15:50:04;;;;;;;8.40;1.88;;;10.10;99.90;;;;;;6166680;29;20274;-68
2022/11/04 15:53:10;;;;;;;4.20;1.77;;;10.10;99.90;;;;;;6166531;29;20267;-66
2022/11/04 15:56:16;;;;;;;7.88;2.10;;;10.10;99.90;;;;;;6166608;29;20275;-68
2022/11/04 15:59:26;;;;;;;5.50;1.83;;;10.00;99.90;;;;;;6166570;29;20270;-67
2022/11/04 16:02:33;;;;;;;6.90;1.85;;;10.10;99.90;;;;;;6167131;29;20278;-67
2022/11/04 16:05:38;;;;;;;12.18;2.40;;;10.10;99.90;;;;;;6165908;29;20306;-67
2022/11/04 16:08:43;;;;;;;8.32;2.35;;;10.10;99.90;;;;;;6166058;29;20267;-67
2022/11/04 16:12:14;;;;;;;3.80;1.63;;;10.10;99.90;;;;;;6166078;29;20267;-67
2022/11/04 16:15:36;;;;;;;3.60;1.83;;;10.10;99.90;;;;;;6127972;29;20275;-67
2022/11/04 16:18:44;;;;;;;5.50;1.98;;;10.10;99.90;;;;;;6142162;29;20548;-66
2022/11/04 16:21:49;;;;;;;3.58;1.88;;;10.10;99.90;;;;;;6142339;29;20271;-67
2022/11/04 16:24:54;;;;;;;7.95;2.10;;;10.10;99.90;;;;;;6141776;29;20290;-66
2022/11/04 16:27:59;;;;;;;14.82;2.20;;;10.00;99.90;;;;;;6141624;29;20279;-66
2022/11/04 16:31:09;;;;;;;2.90;1.55;;;10.00;99.90;;;;;;6141829;29;20272;-67
2022/11/04 16:34:14;;;;;;;6.32;1.85;;;10.00;99.90;;;;;;6141497;29;20271;-66
2022/11/04 16:37:19;;;;;;;6.45;1.90;;;10.00;99.90;;;;;;6141485;29;20275;-67
2022/11/04 16:40:25;;;;;;;11.05;2.67;;;10.10;99.90;;;;;;6141208;29;20271;-66
2022/11/04 16:43:30;;;;;;;7.20;1.77;;;10.00;99.90;;;;;;6141562;29;20429;-66
2022/11/04 16:46:36;;;;;;;3.80;1.75;;;10.10;99.90;;;;;;6141229;29;20454;-67
2022/11/04 16:49:41;;;;;;;7.13;2.13;;;10.00;99.90;;;;;;6141768;29;20459;-66
2022/11/04 16:52:45;;;;;;;5.68;1.90;;;10.00;99.90;;;;;;6141710;29;20276;-67
2022/11/04 16:55:50;;;;;;;7.25;2.00;;;10.00;99.90;;;;;;6141608;29;20271;-67
2022/11/04 16:58:56;;;;;;;15.63;2.38;;;10.00;99.90;;;;;;6140496;29;20279;-66